createdAt,value
2023-02-05T00:01:19.055Z,101007.97
2023-02-05T00:04:04.384Z,101000.78
2023-02-05T00:06:50.552Z,100997.56
2023-02-05T00:09:36.865Z,100994.41
2023-02-05T00:12:22.370Z,100999.13
2023-02-05T00:15:08.270Z,100995.50
2023-02-05T00:17:53.381Z,100999.88
2023-02-05T00:20:38.666Z,101002.19
2023-02-05T00:23:23.917Z,100996.19
2023-02-05T00:26:10.694Z,100995.38
2023-02-05T00:28:56.255Z,100996.13
2023-02-05T00:31:41.841Z,100989.34
2023-02-05T00:34:27.253Z,100988.50
2023-02-05T00:37:12.611Z,100984.13
2023-02-05T00:39:57.839Z,100990.44
2023-02-05T00:42:43.090Z,100986.44
2023-02-05T00:45:35.112Z,100991.59
2023-02-05T00:48:21.138Z,100990.00
2023-02-05T00:51:06.819Z,100993.94
2023-02-05T00:53:52.022Z,101000.28
2023-02-05T00:56:37.193Z,101002.69
2023-02-05T00:59:24.045Z,101005.44
2023-02-05T01:02:09.253Z,101006.63
2023-02-05T01:04:56.239Z,101003.03
2023-02-05T01:07:41.589Z,100999.44
2023-02-05T01:10:26.810Z,101001.78
2023-02-05T01:13:12.222Z,101004.94
2023-02-05T01:15:57.464Z,101017.22
2023-02-05T01:18:42.722Z,101008.06
2023-02-05T01:21:28.033Z,101011.63
2023-02-05T01:24:13.321Z,101006.06
2023-02-05T01:26:58.823Z,101005.66
2023-02-05T01:29:44.233Z,101003.25
2023-02-05T01:32:29.730Z,101001.66
2023-02-05T01:35:15.282Z,100991.34
2023-02-05T01:38:00.578Z,100992.09
2023-02-05T01:40:45.954Z,100994.06
2023-02-05T01:43:31.144Z,100990.50
2023-02-05T01:46:36.769Z,100982.94
2023-02-05T01:49:29.697Z,100977.00
2023-02-05T01:52:17.225Z,100967.41
2023-02-05T01:55:02.615Z,100962.25
2023-02-05T01:57:50.198Z,100956.72
2023-02-05T02:00:35.745Z,100957.50
2023-02-05T02:03:23.751Z,100964.22
2023-02-05T02:06:08.983Z,100953.50
2023-02-05T02:08:54.451Z,100941.59
2023-02-05T02:11:42.958Z,100947.53
2023-02-05T02:14:32.350Z,100935.63
2023-02-05T02:17:19.525Z,100934.00
2023-02-05T02:20:09.227Z,100930.06
2023-02-05T02:22:54.614Z,100926.09
2023-02-05T02:25:58.892Z,100918.13
2023-02-05T02:29:22.949Z,100916.50
2023-02-05T02:32:35.872Z,100922.06
2023-02-05T02:35:29.778Z,100912.94
2023-02-05T02:38:35.664Z,100900.25
2023-02-05T02:41:43.350Z,100903.38
2023-02-05T02:44:41.507Z,100906.16
2023-02-05T02:47:34.874Z,100901.41
2023-02-05T02:50:26.461Z,100888.72
2023-02-05T02:53:17.072Z,100889.06
2023-02-05T02:56:04.864Z,100884.72
2023-02-05T02:59:03.482Z,100872.00
2023-02-05T03:01:56.757Z,100871.19
2023-02-05T03:04:52.189Z,100881.53
2023-02-05T03:07:51.459Z,100870.41
2023-02-05T03:10:42.742Z,100869.59
2023-02-05T03:13:29.206Z,100868.00
2023-02-05T03:16:20.336Z,100868.00
2023-02-05T03:19:06.459Z,100873.56
2023-02-05T03:21:59.096Z,100866.00
2023-02-05T03:24:44.683Z,100860.03
2023-02-05T03:27:30.486Z,100860.44
2023-02-05T03:30:17.965Z,100853.28
2023-02-05T03:33:27.690Z,100863.59
2023-02-05T03:36:25.997Z,100872.72
2023-02-05T03:39:21.912Z,100862.41
2023-02-05T03:42:14.462Z,100863.59
2023-02-05T03:45:29.864Z,100871.13
2023-02-05T03:48:36.547Z,100869.53
2023-02-05T03:51:37.294Z,100865.16
2023-02-05T03:54:29.797Z,100876.69
2023-02-05T03:57:24.763Z,100880.63
2023-02-05T04:00:11.743Z,100875.06
2023-02-05T04:03:01.390Z,100878.25
2023-02-05T04:05:50.339Z,100869.91
2023-02-05T04:08:37.593Z,100866.31
2023-02-05T04:11:22.982Z,100865.53
2023-02-05T04:14:09.405Z,100871.88
2023-02-05T04:16:56.561Z,100883.75
2023-02-05T04:19:43.386Z,100874.22
2023-02-05T04:22:30.879Z,100874.22
2023-02-05T04:25:16.306Z,100867.09
2023-02-05T04:28:02.823Z,100878.19
2023-02-05T04:30:49.579Z,100871.03
2023-02-05T04:33:35.182Z,100876.59
2023-02-05T04:36:21.097Z,100886.88
2023-02-05T04:39:06.951Z,100893.25
2023-02-05T04:41:52.194Z,100893.25
2023-02-05T04:44:37.606Z,100879.72
2023-02-05T04:47:22.812Z,100878.53
2023-02-05T04:50:08.266Z,100880.53
2023-02-05T04:52:53.573Z,100892.00
2023-02-05T04:55:40.230Z,100886.84
2023-02-05T04:58:25.475Z,100889.22
2023-02-05T05:01:19.442Z,100892.00
2023-02-05T05:04:05.004Z,100897.56
2023-02-05T05:06:50.451Z,100907.06
2023-02-05T05:09:39.089Z,100900.72
2023-02-05T05:12:24.449Z,100902.69
2023-02-05T05:15:10.255Z,100901.53
2023-02-05T05:17:55.663Z,100896.34
2023-02-05T05:20:42.659Z,100893.97
2023-02-05T05:23:28.107Z,100905.09
2023-02-05T05:26:13.823Z,100900.72
2023-02-05T05:28:59.426Z,100907.44
2023-02-05T05:31:44.835Z,100915.41
2023-02-05T05:34:30.234Z,100913.00
2023-02-05T05:37:15.769Z,100909.84
2023-02-05T05:40:19.691Z,100903.50
2023-02-05T05:43:23.644Z,100897.94
2023-02-05T05:46:09.697Z,100892.00
2023-02-05T05:48:57.157Z,100890.03
2023-02-05T05:51:42.407Z,100891.63
2023-02-05T05:54:27.837Z,100890.03
2023-02-05T05:57:13.117Z,100897.19
2023-02-05T05:59:58.847Z,100893.63
2023-02-05T06:02:44.953Z,100893.25
2023-02-05T06:05:31.274Z,100894.50
2023-02-05T06:08:16.911Z,100899.66
2023-02-05T06:11:02.239Z,100888.53
2023-02-05T06:13:47.551Z,100901.25
2023-02-05T06:16:33.053Z,100903.25
2023-02-05T06:19:18.700Z,100902.41
2023-02-05T06:22:04.407Z,100912.38
2023-02-05T06:24:56.213Z,100915.16
2023-02-05T06:27:42.238Z,100913.94
2023-02-05T06:30:27.471Z,100914.00
2023-02-05T06:33:13.010Z,100918.78
2023-02-05T06:36:04.685Z,100919.56
2023-02-05T06:38:49.951Z,100908.88
2023-02-05T06:41:35.155Z,100912.94
2023-02-05T06:44:20.399Z,100922.09
2023-02-05T06:47:05.816Z,100924.53
2023-02-05T06:49:51.227Z,100925.38
2023-02-05T06:52:36.636Z,100914.69
2023-02-05T06:55:22.135Z,100919.47
2023-02-05T06:58:07.971Z,100915.53
2023-02-05T07:00:53.374Z,100921.56
2023-02-05T07:03:39.029Z,100910.50
2023-02-05T07:06:25.570Z,100905.75
2023-02-05T07:09:11.013Z,100896.25
2023-02-05T07:11:56.263Z,100903.84
2023-02-05T07:14:42.134Z,100908.19
2023-02-05T07:17:28.043Z,100902.63
2023-02-05T07:20:13.888Z,100907.03
2023-02-05T07:23:00.386Z,100906.63
2023-02-05T07:25:46.308Z,100914.97
2023-02-05T07:28:31.590Z,100917.38
2023-02-05T07:31:18.956Z,100914.22
2023-02-05T07:34:04.250Z,100897.91
2023-02-05T07:36:53.502Z,100894.72
2023-02-05T07:39:39.064Z,100893.13
2023-02-05T07:42:24.493Z,100893.50
2023-02-05T07:45:15.286Z,100902.63
2023-02-05T07:48:00.664Z,100889.16
2023-02-05T07:50:45.999Z,100904.66
2023-02-05T07:53:31.765Z,100901.88
2023-02-05T07:56:18.335Z,100908.66
2023-02-05T07:59:03.688Z,100910.28
2023-02-05T08:01:49.116Z,100909.91
2023-02-05T08:04:34.544Z,100911.13
2023-02-05T08:07:19.812Z,100910.69
2023-02-05T08:10:05.743Z,100911.50
2023-02-05T08:12:51.169Z,100918.63
2023-02-05T08:15:39.161Z,100905.09
2023-02-05T08:18:25.797Z,100890.78
2023-02-05T08:21:11.088Z,100886.00
2023-02-05T08:23:58.551Z,100876.47
2023-02-05T08:26:44.305Z,100877.28
2023-02-05T08:29:29.822Z,100879.28
2023-02-05T08:32:15.065Z,100866.97
2023-02-05T08:35:00.699Z,100854.66
2023-02-05T08:37:46.562Z,100851.50
2023-02-05T08:40:31.904Z,100845.50
2023-02-05T08:43:17.417Z,100840.78
2023-02-05T08:46:04.137Z,100833.19
2023-02-05T08:48:49.336Z,100826.84
2023-02-05T08:51:35.817Z,100824.94
2023-02-05T08:54:21.315Z,100830.50
2023-02-05T08:57:06.652Z,100838.41
2023-02-05T08:59:52.235Z,100836.06
2023-02-05T09:02:37.399Z,100844.81
2023-02-05T09:05:22.576Z,100846.84
2023-02-05T09:08:08.104Z,100834.50
2023-02-05T09:10:54.058Z,100834.50
2023-02-05T09:13:40.162Z,100826.19
2023-02-05T09:16:26.838Z,100824.22
2023-02-05T09:19:16.177Z,100819.44
2023-02-05T09:22:01.670Z,100812.34
2023-02-05T09:24:47.394Z,100817.91
2023-02-05T09:27:32.639Z,100807.16
2023-02-05T09:30:18.146Z,100801.22
2023-02-05T09:33:03.716Z,100803.16
2023-02-05T09:35:49.450Z,100805.56
2023-02-05T09:38:34.710Z,100802.75
2023-02-05T09:41:37.105Z,100786.84
2023-02-05T09:44:34.962Z,100796.34
2023-02-05T09:47:27.841Z,100793.22
2023-02-05T09:50:29.505Z,100801.97
2023-02-05T09:53:19.616Z,100802.38
2023-02-05T09:56:08.158Z,100801.22
2023-02-05T09:58:56.850Z,100803.19
2023-02-05T10:01:52.191Z,100796.44
2023-02-05T10:04:37.619Z,100794.06
2023-02-05T10:07:38.183Z,100791.69
2023-02-05T10:10:36.480Z,100787.34
2023-02-05T10:13:25.011Z,100780.19
2023-02-05T10:16:23.178Z,100779.78
2023-02-05T10:19:35.080Z,100777.38
2023-02-05T10:22:27.531Z,100773.44
2023-02-05T10:25:21.781Z,100768.28
2023-02-05T10:28:40.720Z,100758.34
2023-02-05T10:37:41.346Z,100758.38
2023-02-05T10:40:34.282Z,100757.19
2023-02-05T10:43:26.405Z,100752.03
2023-02-05T10:46:15.430Z,100754.03
2023-02-05T10:49:13.246Z,100756.03
2023-02-05T10:51:57.921Z,100750.03
2023-02-05T10:54:43.408Z,100752.81
2023-02-05T11:03:00.725Z,100742.06
2023-02-05T11:05:46.416Z,100735.75
2023-02-05T11:08:43.033Z,100736.16
2023-02-05T11:11:30.345Z,100738.94
2023-02-05T11:14:23.252Z,100740.09
2023-02-05T11:17:22.239Z,100736.16
2023-02-05T11:20:13.792Z,100731.38
2023-02-05T11:23:06.720Z,100734.16
2023-02-05T11:25:55.278Z,100734.16
2023-02-05T11:28:40.685Z,100736.94
2023-02-05T11:31:34.745Z,100722.63
2023-02-05T11:34:20.691Z,100735.75
2023-02-05T11:37:08.483Z,100726.22
2023-02-05T11:39:57.422Z,100719.81
2023-02-05T11:43:26.385Z,100722.19
2023-02-05T11:46:18.785Z,100715.47
2023-02-05T11:49:05.098Z,100718.25
2023-02-05T11:51:55.857Z,100716.63
2023-02-05T11:54:47.587Z,100705.13
2023-02-05T11:57:35.454Z,100712.69
2023-02-05T12:00:22.614Z,100700.34
2023-02-05T12:03:19.114Z,100694.00
2023-02-05T12:06:07.697Z,100697.97
2023-02-05T12:08:54.936Z,100701.16
2023-02-05T12:12:03.520Z,100697.97
2023-02-05T12:14:58.114Z,100700.34
2023-02-05T12:18:31.601Z,100708.28
2023-02-05T12:21:35.161Z,100699.50
2023-02-05T12:28:50.180Z,100699.50
2023-02-05T12:31:51.328Z,100704.25
2023-02-05T12:34:55.080Z,100705.44
2023-02-05T12:37:55.790Z,100695.47
2023-02-05T12:40:59.834Z,100687.91
2023-02-05T12:43:48.631Z,100685.13
2023-02-05T12:47:17.803Z,100687.56
2023-02-05T12:50:22.361Z,100688.75
2023-02-05T12:53:32.337Z,100685.97
2023-02-05T12:56:20.856Z,100682.81
2023-02-05T12:59:11.304Z,100689.19
2023-02-05T13:02:01.544Z,100677.66
2023-02-05T13:05:08.370Z,100678.88
2023-02-05T13:08:21.011Z,100671.75
2023-02-05T13:11:11.142Z,100667.78
2023-02-05T13:14:23.803Z,100673.75
2023-02-05T13:17:20.408Z,100657.06
2023-02-05T13:20:15.929Z,100660.22
2023-02-05T13:23:37.247Z,100658.25
2023-02-05T13:26:50.525Z,100662.25
2023-02-05T13:29:46.849Z,100663.03
2023-02-05T13:32:34.877Z,100666.22
2023-02-05T13:35:22.689Z,100661.88
2023-02-05T13:38:33.626Z,100667.03
2023-02-05T13:41:26.118Z,100666.63
2023-02-05T13:44:58.266Z,100666.25
2023-02-05T13:48:24.224Z,100667.06
2023-02-05T13:51:35.865Z,100670.22
2023-02-05T13:55:06.351Z,100672.22
2023-02-05T13:57:54.794Z,100691.34
2023-02-05T14:00:45.090Z,100700.88
2023-02-05T14:03:35.695Z,100699.25
2023-02-05T14:06:35.477Z,100690.13
2023-02-05T14:09:24.718Z,100694.91
2023-02-05T14:12:13.403Z,100706.03
2023-02-05T14:15:19.729Z,100702.47
2023-02-05T14:18:06.025Z,100688.94
2023-02-05T14:20:51.669Z,100681.00
2023-02-05T14:23:50.102Z,100678.22
2023-02-05T14:27:00.638Z,100674.25
2023-02-05T14:29:50.035Z,100667.47
2023-02-05T14:32:39.987Z,100663.09
2023-02-05T14:35:30.066Z,100663.94
2023-02-05T14:38:22.369Z,100669.53
2023-02-05T14:41:15.446Z,100672.69
2023-02-05T14:44:16.013Z,100671.91
2023-02-05T14:47:02.347Z,100690.19
2023-02-05T14:49:49.684Z,100687.78
2023-02-05T14:52:54.281Z,100697.34
2023-02-05T14:55:43.829Z,100706.91
2023-02-05T14:58:40.768Z,100710.84
2023-02-05T15:01:40.711Z,100716.44
2023-02-05T15:04:50.406Z,100718.81
2023-02-05T15:07:37.066Z,100711.25
2023-02-05T15:10:28.764Z,100714.06
2023-02-05T15:13:21.503Z,100718.03
2023-02-05T15:16:12.936Z,100723.19
2023-02-05T15:18:59.799Z,100729.97
2023-02-05T15:21:52.844Z,100727.59
2023-02-05T15:24:40.037Z,100729.97
2023-02-05T15:27:40.497Z,100725.19
2023-02-05T15:30:30.481Z,100720.81
2023-02-05T15:33:25.277Z,100718.84
2023-02-05T15:36:20.255Z,100727.59
2023-02-05T15:39:14.690Z,100711.69
2023-02-05T15:42:03.336Z,100701.34
2023-02-05T15:44:49.573Z,100704.91
2023-02-05T15:47:36.655Z,100705.69
2023-02-05T15:50:24.312Z,100709.28
2023-02-05T15:53:35.545Z,100708.50
2023-02-05T15:56:25.739Z,100713.25
2023-02-05T15:59:11.075Z,100715.66
2023-02-05T16:02:01.924Z,100710.88
2023-02-05T16:04:55.381Z,100708.50
2023-02-05T16:07:42.992Z,100713.69
2023-02-05T16:10:31.337Z,100705.31
2023-02-05T16:13:18.010Z,100713.25
2023-02-05T16:16:15.474Z,100726.78
2023-02-05T16:19:04.737Z,100724.41
2023-02-05T16:22:01.273Z,100733.97
2023-02-05T16:24:50.593Z,100736.75
2023-02-05T16:27:43.069Z,100733.16
2023-02-05T16:30:40.524Z,100746.28
2023-02-05T16:33:32.299Z,100749.47
2023-02-05T16:36:23.173Z,100764.59
2023-02-05T16:39:29.496Z,100766.59
2023-02-05T16:42:40.269Z,100776.13
2023-02-05T16:45:33.200Z,100792.03
2023-02-05T16:48:29.322Z,100778.91
2023-02-05T16:51:31.858Z,100795.63
2023-02-05T16:54:21.013Z,100808.75
2023-02-05T16:57:17.651Z,100801.19
2023-02-05T17:00:30.871Z,100803.97
2023-02-05T17:03:21.434Z,100814.75
2023-02-05T17:06:19.231Z,100816.69
2023-02-05T17:12:33.412Z,100813.53
2023-02-05T17:15:28.806Z,100804.78
2023-02-05T17:18:37.370Z,100812.72
2023-02-05T17:21:48.332Z,100817.13
2023-02-05T17:24:38.369Z,100820.28
2023-02-05T17:27:35.411Z,100820.28
2023-02-05T17:30:51.043Z,100819.88
2023-02-05T17:33:43.220Z,100827.03
2023-02-05T17:36:36.859Z,100833.78
2023-02-05T17:39:23.872Z,100825.44
2023-02-05T17:42:31.114Z,100819.06
2023-02-05T17:45:21.799Z,100814.28
2023-02-05T17:48:08.564Z,100820.69
2023-02-05T17:50:59.100Z,100820.69
2023-02-05T17:53:44.301Z,100807.97
2023-02-05T17:56:29.823Z,100806.75
2023-02-05T17:59:20.664Z,100803.19
2023-02-05T18:02:08.029Z,100804.78
2023-02-05T18:04:55.136Z,100809.53
2023-02-05T18:07:56.907Z,100804.75
2023-02-05T18:10:43.037Z,100806.75
2023-02-05T18:13:33.350Z,100827.84
2023-02-05T18:16:22.332Z,100831.81
2023-02-05T18:19:11.693Z,100831.03
2023-02-05T18:22:02.970Z,100841.38
2023-02-05T18:24:50.054Z,100833.41
2023-02-05T18:27:37.638Z,100835.00
2023-02-05T18:30:25.637Z,100831.03
2023-02-05T18:33:12.459Z,100831.44
2023-02-05T18:36:04.391Z,100828.66
2023-02-05T18:38:54.183Z,100835.00
2023-02-05T18:41:41.309Z,100829.44
2023-02-05T18:44:31.943Z,100830.63
2023-02-05T18:47:19.879Z,100834.59
2023-02-05T18:50:10.541Z,100828.63
2023-02-05T18:53:01.584Z,100825.06
2023-02-05T18:55:47.521Z,100826.22
2023-02-05T18:58:36.012Z,100833.41
2023-02-05T19:01:24.690Z,100848.50
2023-02-05T19:04:20.939Z,100860.44
2023-02-05T19:07:11.859Z,100858.84
2023-02-05T19:10:01.197Z,100854.88
2023-02-05T19:12:54.928Z,100854.06
2023-02-05T19:15:44.743Z,100848.88
2023-02-05T19:18:33.682Z,100853.19
2023-02-05T19:21:25.949Z,100857.97
2023-02-05T19:27:18.460Z,100875.47
2023-02-05T19:30:14.169Z,100872.31
2023-02-05T19:33:00.817Z,100873.84
2023-02-05T19:35:48.955Z,100881.00
2023-02-05T19:38:38.652Z,100872.66
2023-02-05T19:41:30.070Z,100877.81
2023-02-05T19:44:21.215Z,100873.00
2023-02-05T19:47:09.502Z,100874.59
2023-02-05T19:49:59.568Z,100874.59
2023-02-05T19:52:52.853Z,100880.16
2023-02-05T19:55:38.758Z,100882.94
2023-02-05T19:58:26.932Z,100882.16
2023-02-05T20:01:19.303Z,100884.13
2023-02-05T20:04:24.877Z,100890.91
2023-02-05T20:07:13.150Z,100887.34
2023-02-05T20:10:00.797Z,100889.72
2023-02-05T20:12:51.949Z,100888.13
2023-02-05T20:15:43.246Z,100898.47
2023-02-05T20:18:31.189Z,100889.72
2023-02-05T20:21:18.869Z,100882.59
2023-02-05T20:24:04.738Z,100873.06
2023-02-05T20:26:50.468Z,100886.56
2023-02-05T20:29:54.725Z,100891.75
2023-02-05T20:32:40.102Z,100890.16
2023-02-05T20:35:25.387Z,100896.13
2023-02-05T20:38:10.604Z,100889.00
2023-02-05T20:40:55.776Z,100893.75
2023-02-05T20:43:41.361Z,100889.00
2023-02-05T20:46:27.219Z,100895.34
2023-02-05T20:49:12.496Z,100888.22
2023-02-05T20:51:57.950Z,100889.81
2023-02-05T20:54:43.170Z,100879.88
2023-02-05T20:57:28.714Z,100869.94
2023-02-05T21:00:14.791Z,100871.53
2023-02-05T21:02:59.944Z,100884.28
2023-02-05T21:05:45.357Z,100881.09
2023-02-05T21:08:30.645Z,100882.28
2023-02-05T21:11:17.366Z,100894.56
2023-02-05T21:14:06.260Z,100888.22
2023-02-05T21:16:51.591Z,100897.00
2023-02-05T21:19:36.844Z,100899.00
2023-02-05T21:22:22.215Z,100908.53
2023-02-05T21:25:07.768Z,100916.47
2023-02-05T21:27:53.502Z,100923.66
2023-02-05T21:30:39.488Z,100925.66
2023-02-05T21:33:26.415Z,100928.03
2023-02-05T21:36:12.550Z,100936.38
2023-02-05T21:38:57.967Z,100936.78
2023-02-05T21:41:45.554Z,100942.38
2023-02-05T21:44:30.884Z,100957.47
2023-02-05T21:47:15.970Z,100953.91
2023-02-05T21:50:01.405Z,100957.88
2023-02-05T21:52:46.627Z,100961.03
2023-02-05T21:55:33.421Z,100967.81
2023-02-05T21:58:18.658Z,100975.78
2023-02-05T22:01:15.910Z,100978.94
2023-02-05T22:04:11.134Z,100972.16
2023-02-05T22:06:56.495Z,100974.94
2023-02-05T22:09:42.224Z,100967.81
2023-02-05T22:12:27.418Z,100967.41
2023-02-05T22:15:13.507Z,100976.56
2023-02-05T22:17:58.946Z,100984.91
2023-02-05T22:20:44.228Z,100997.22
2023-02-05T22:23:29.385Z,101008.38
2023-02-05T22:26:17.020Z,101014.34
2023-02-05T22:29:05.224Z,101007.56
2023-02-05T22:31:52.263Z,101012.34
2023-02-05T22:34:37.737Z,100997.63
2023-02-05T22:37:23.091Z,101011.50
2023-02-05T22:40:08.956Z,101015.41
2023-02-05T22:42:53.993Z,101000.69
2023-02-05T22:45:39.338Z,101000.63
2023-02-05T22:48:24.594Z,101002.59
2023-02-05T22:51:13.772Z,101005.72
2023-02-05T22:53:59.936Z,100989.03
2023-02-05T22:56:45.767Z,100994.56
2023-02-05T22:59:31.087Z,100987.38
2023-02-05T23:02:16.262Z,100998.44
2023-02-05T23:05:01.536Z,101002.03
2023-02-05T23:07:50.934Z,101009.16
2023-02-05T23:10:36.051Z,101012.69
2023-02-05T23:13:21.289Z,101009.47
2023-02-05T23:16:19.106Z,101003.88
2023-02-05T23:19:07.986Z,101014.59
2023-02-05T23:21:53.268Z,101022.91
2023-02-05T23:24:38.462Z,101025.66
2023-02-05T23:27:24.448Z,101018.88
2023-02-05T23:30:11.239Z,101026.00
2023-02-05T23:32:56.531Z,101019.22
2023-02-05T23:35:41.736Z,101011.63
2023-02-05T23:38:27.022Z,100994.91
2023-02-05T23:41:13.002Z,100996.88
2023-02-05T23:43:58.451Z,100993.69
2023-02-05T23:46:45.161Z,100997.22
2023-02-05T23:49:30.789Z,100997.63
2023-02-05T23:52:15.877Z,100984.09
2023-02-05T23:55:01.291Z,100988.44
2023-02-05T23:57:46.393Z,100984.44
